createdAt,value
2023-04-09T00:00:25.949Z,102687.44
2023-04-09T00:02:55.955Z,102691.91
2023-04-09T00:05:28.541Z,102699.16
2023-04-09T00:07:58.455Z,102686.81
2023-04-09T00:10:28.336Z,102689.56
2023-04-09T00:12:58.161Z,102694.84
2023-04-09T00:15:31.549Z,102690.47
2023-04-09T00:18:02.010Z,102690.47
2023-04-09T00:20:34.483Z,102695.72
2023-04-09T00:23:04.356Z,102693.09
2023-04-09T00:25:34.252Z,102695.72
2023-04-09T00:28:04.094Z,102694.53
2023-04-09T00:30:37.344Z,102694.53
2023-04-09T00:33:07.227Z,102693.53
2023-04-09T00:35:39.721Z,102695.31
2023-04-09T00:38:09.682Z,102689.97
2023-04-09T00:40:39.581Z,102686.44
2023-04-09T00:43:09.397Z,102688.06
2023-04-09T00:45:39.364Z,102686.16
2023-04-09T00:48:09.956Z,102685.25
2023-04-09T00:50:42.714Z,102682.41
2023-04-09T00:53:14.469Z,102684.81
2023-04-09T00:55:44.711Z,102684.59
2023-04-09T00:58:14.608Z,102680.97
2023-04-09T01:00:44.578Z,102685.22
2023-04-09T01:03:14.639Z,102681.38
2023-04-09T01:05:56.562Z,102672.28
2023-04-09T01:08:36.344Z,102666.63
2023-04-09T01:11:18.410Z,102668.97
2023-04-09T01:13:55.599Z,102670.25
2023-04-09T01:16:28.222Z,102665.63
2023-04-09T01:19:02.728Z,102669.69
2023-04-09T01:21:36.852Z,102668.66
2023-04-09T01:24:21.414Z,102676.34
2023-04-09T01:27:00.936Z,102668.47
2023-04-09T01:29:35.931Z,102676.44
2023-04-09T01:32:07.868Z,102670.47
2023-04-09T01:34:44.389Z,102671.59
2023-04-09T01:37:15.332Z,102669.06
2023-04-09T01:39:45.774Z,102669.28
2023-04-09T01:42:18.802Z,102673.59
2023-04-09T01:44:51.738Z,102675.44
2023-04-09T01:47:22.077Z,102667.44
2023-04-09T01:49:52.338Z,102667.44
2023-04-09T01:52:22.588Z,102669.28
2023-04-09T01:54:52.471Z,102660.56
2023-04-09T01:57:22.345Z,102660.78
2023-04-09T01:59:55.029Z,102666.22
2023-04-09T02:02:37.237Z,102664.59
2023-04-09T02:05:10.679Z,102662.09
2023-04-09T02:07:43.630Z,102657.03
2023-04-09T02:10:17.598Z,102656.31
2023-04-09T02:12:54.083Z,102652.06
2023-04-09T02:15:27.889Z,102654.78
2023-04-09T02:17:57.792Z,102651.44
2023-04-09T02:20:27.760Z,102645.38
2023-04-09T02:22:57.623Z,102652.56
2023-04-09T02:25:28.353Z,102646.47
2023-04-09T02:27:59.165Z,102644.69
2023-04-09T02:30:31.698Z,102636.91
2023-04-09T02:33:01.535Z,102636.91
2023-04-09T02:35:31.440Z,102631.72
2023-04-09T02:38:01.333Z,102631.72
2023-04-09T02:40:31.398Z,102630.00
2023-04-09T02:43:01.344Z,102627.34
2023-04-09T02:45:33.981Z,102627.28
2023-04-09T02:48:03.853Z,102622.81
2023-04-09T02:50:33.773Z,102621.00
2023-04-09T02:53:03.782Z,102620.09
2023-04-09T02:55:34.082Z,102615.63
2023-04-09T02:58:04.736Z,102616.34
2023-04-09T03:00:37.243Z,102617.97
2023-04-09T03:03:07.371Z,102616.06
2023-04-09T03:05:42.749Z,102627.50
2023-04-09T03:08:12.586Z,102619.50
2023-04-09T03:10:42.418Z,102618.59
2023-04-09T03:13:12.283Z,102622.03
2023-04-09T03:15:47.758Z,102613.25
2023-04-09T03:18:17.651Z,102624.56
2023-04-09T03:20:47.573Z,102623.56
2023-04-09T03:23:17.384Z,102619.13
2023-04-09T03:25:47.432Z,102624.16
2023-04-09T03:28:17.294Z,102621.44
2023-04-09T03:30:49.723Z,102624.09
2023-04-09T03:33:19.822Z,102620.56
2023-04-09T03:35:49.727Z,102619.53
2023-04-09T03:38:19.819Z,102623.97
2023-04-09T03:40:49.662Z,102615.19
2023-04-09T03:43:19.451Z,102617.00
2023-04-09T03:45:51.875Z,102610.75
2023-04-09T03:48:21.717Z,102605.28
2023-04-09T03:50:51.946Z,102612.25
2023-04-09T03:53:21.768Z,102611.03
2023-04-09T03:55:51.621Z,102612.59
2023-04-09T03:58:21.484Z,102612.47
2023-04-09T04:00:53.870Z,102611.56
2023-04-09T04:03:23.817Z,102605.19
2023-04-09T04:05:54.615Z,102606.81
2023-04-09T04:08:24.555Z,102610.25
2023-04-09T04:10:54.379Z,102613.78
2023-04-09T04:13:24.304Z,102620.94
2023-04-09T04:15:56.837Z,102610.44
2023-04-09T04:18:28.199Z,102617.53
2023-04-09T04:20:58.011Z,102616.72
2023-04-09T04:23:27.803Z,102610.66
2023-04-09T04:25:58.369Z,102607.91
2023-04-09T04:28:28.987Z,102608.81
2023-04-09T04:31:01.429Z,102607.03
2023-04-09T04:33:31.352Z,102614.59
2023-04-09T04:36:07.791Z,102615.00
2023-04-09T04:38:38.180Z,102609.25
2023-04-09T04:41:08.759Z,102611.34
2023-04-09T04:43:38.584Z,102615.41
2023-04-09T04:46:11.202Z,102615.19
2023-04-09T04:48:41.081Z,102616.81
2023-04-09T04:51:10.950Z,102625.59
2023-04-09T04:53:40.844Z,102614.38
2023-04-09T04:56:16.203Z,102617.72
2023-04-09T04:58:47.533Z,102624.69
2023-04-09T05:01:20.062Z,102615.00
2023-04-09T05:03:51.692Z,102627.19
2023-04-09T05:06:21.756Z,102619.31
2023-04-09T05:08:52.053Z,102621.94
2023-04-09T05:11:22.137Z,102622.06
2023-04-09T05:13:51.984Z,102621.34
2023-04-09T05:16:27.347Z,102622.97
2023-04-09T05:18:57.247Z,102622.97
2023-04-09T05:21:27.806Z,102617.63
2023-04-09T05:23:57.656Z,102619.31
2023-04-09T05:26:27.588Z,102622.88
2023-04-09T05:28:57.498Z,102623.97
2023-04-09T05:31:30.879Z,102620.75
2023-04-09T05:34:00.711Z,102617.31
2023-04-09T05:36:30.575Z,102619.13
2023-04-09T05:39:00.594Z,102618.22
2023-04-09T05:41:30.554Z,102617.19
2023-04-09T05:44:00.992Z,102619.56
2023-04-09T05:46:33.710Z,102627.91
2023-04-09T05:49:03.603Z,102622.38
2023-04-09T05:51:33.678Z,102615.91
2023-04-09T05:54:04.363Z,102622.06
2023-04-09T05:56:34.241Z,102616.81
2023-04-09T05:59:04.145Z,102620.44
2023-04-09T06:01:36.882Z,102616.28
2023-04-09T06:04:08.249Z,102619.81
2023-04-09T06:06:40.327Z,102619.75
2023-04-09T06:09:10.361Z,102612.66
2023-04-09T06:11:40.155Z,102615.19
2023-04-09T06:14:12.446Z,102608.94
2023-04-09T06:16:44.932Z,102614.06
2023-04-09T06:19:15.347Z,102617.38
2023-04-09T06:21:45.204Z,102615.47
2023-04-09T06:24:15.103Z,102619.81
2023-04-09T06:26:44.978Z,102621.63
2023-04-09T06:29:16.137Z,102623.53
2023-04-09T06:31:48.760Z,102624.69
2023-04-09T06:34:18.963Z,102636.28
2023-04-09T06:37:20.066Z,102630.63
2023-04-09T06:40:01.044Z,102624.09
2023-04-09T06:42:42.591Z,102628.66
2023-04-09T06:45:13.134Z,102627.94
2023-04-09T06:47:45.588Z,102628.13
2023-04-09T06:50:15.649Z,102634.50
2023-04-09T06:52:45.760Z,102638.25
2023-04-09T06:55:15.725Z,102639.28
2023-04-09T06:57:45.520Z,102641.06
2023-04-09T07:00:16.724Z,102630.69
2023-04-09T07:02:49.548Z,102629.75
2023-04-09T07:05:19.942Z,102629.53
2023-04-09T07:07:49.755Z,102626.03
2023-04-09T07:10:19.687Z,102621.78
2023-04-09T07:12:51.102Z,102626.03
2023-04-09T07:15:20.992Z,102633.91
2023-04-09T07:17:53.597Z,102628.75
2023-04-09T07:20:23.657Z,102638.56
2023-04-09T07:22:53.472Z,102636.22
2023-04-09T07:25:24.162Z,102641.78
2023-04-09T07:27:54.023Z,102645.59
2023-04-09T07:30:24.168Z,102645.72
2023-04-09T07:32:56.720Z,102646.03
2023-04-09T07:35:28.367Z,102655.13
2023-04-09T07:38:00.553Z,102647.56
2023-04-09T07:40:30.511Z,102649.53
2023-04-09T07:43:00.366Z,102645.41
2023-04-09T07:45:30.217Z,102647.41
2023-04-09T07:48:06.625Z,102637.91
2023-04-09T07:50:36.624Z,102643.28
2023-04-09T07:53:06.471Z,102645.09
2023-04-09T07:55:36.304Z,102646.19
2023-04-09T07:58:07.537Z,102649.09
2023-04-09T08:00:37.413Z,102658.91
2023-04-09T08:03:10.126Z,102645.06
2023-04-09T08:05:40.971Z,102644.34
2023-04-09T08:08:10.798Z,102651.66
2023-04-09T08:10:40.649Z,102654.47
2023-04-09T08:13:11.970Z,102645.69
2023-04-09T08:15:41.957Z,102652.88
2023-04-09T08:18:14.470Z,102653.03
2023-04-09T08:20:45.727Z,102655.06
2023-04-09T08:23:15.649Z,102652.63
2023-04-09T08:25:45.549Z,102654.44
2023-04-09T08:28:15.458Z,102649.47
2023-04-09T08:30:45.326Z,102658.38
2023-04-09T08:33:17.866Z,102654.13
2023-04-09T08:35:47.660Z,102659.50
2023-04-09T08:38:18.033Z,102655.13
2023-04-09T08:40:48.230Z,102652.59
2023-04-09T08:43:19.393Z,102654.41
2023-04-09T08:45:49.211Z,102651.88
2023-04-09T08:48:22.769Z,102655.31
2023-04-09T08:50:55.143Z,102656.03
2023-04-09T08:53:25.933Z,102654.00
2023-04-09T08:55:55.915Z,102649.47
2023-04-09T08:58:25.766Z,102657.47
2023-04-09T09:00:56.057Z,102659.28
2023-04-09T09:03:28.655Z,102660.22
2023-04-09T09:05:59.178Z,102659.28
2023-04-09T09:08:30.949Z,102649.09
2023-04-09T09:11:00.839Z,102656.28
2023-04-09T09:13:31.324Z,102651.13
2023-04-09T09:16:16.891Z,102652.41
2023-04-09T09:18:49.957Z,102654.22
2023-04-09T09:21:21.432Z,102654.50
2023-04-09T09:23:51.475Z,102653.88
2023-04-09T09:26:23.303Z,102655.69
2023-04-09T09:28:54.011Z,102660.69
2023-04-09T09:31:26.030Z,102653.50
2023-04-09T09:34:01.347Z,102653.78
2023-04-09T09:36:35.326Z,102650.53
2023-04-09T09:39:12.632Z,102648.81
2023-04-09T09:41:43.078Z,102645.63
2023-04-09T09:44:14.386Z,102637.94
2023-04-09T09:46:44.640Z,102636.50
2023-04-09T09:49:17.120Z,102634.88
2023-04-09T09:51:47.290Z,102631.59
2023-04-09T09:54:22.038Z,102631.06
2023-04-09T09:56:57.812Z,102641.81
2023-04-09T09:59:33.389Z,102639.97
2023-04-09T10:02:08.317Z,102633.44
2023-04-09T10:04:41.915Z,102637.25
2023-04-09T10:07:13.930Z,102632.28
2023-04-09T10:09:45.650Z,102631.03
2023-04-09T10:12:15.720Z,102623.66
2023-04-09T10:14:46.666Z,102630.22
2023-04-09T10:17:20.285Z,102624.22
2023-04-09T10:19:59.901Z,102620.91
2023-04-09T10:22:35.129Z,102629.03
2023-04-09T10:25:06.720Z,102612.22
2023-04-09T10:27:36.664Z,102615.66
2023-04-09T10:30:10.576Z,102600.56
2023-04-09T10:32:40.865Z,102602.31
2023-04-09T10:35:13.537Z,102594.56
2023-04-09T10:37:54.803Z,102594.84
2023-04-09T10:40:24.792Z,102592.47
2023-04-09T10:42:55.758Z,102586.13
2023-04-09T10:45:26.560Z,102583.97
2023-04-09T10:47:56.733Z,102584.69
2023-04-09T10:50:34.712Z,102581.94
2023-04-09T10:53:07.289Z,102584.34
2023-04-09T10:55:39.374Z,102576.06
2023-04-09T10:58:12.720Z,102576.53
2023-04-09T11:00:44.825Z,102575.22
2023-04-09T11:03:24.188Z,102577.38
2023-04-09T11:06:00.666Z,102563.69
2023-04-09T11:08:35.243Z,102558.91
2023-04-09T11:11:06.179Z,102560.69
2023-04-09T11:13:36.371Z,102558.16
2023-04-09T11:16:07.416Z,102555.81
2023-04-09T11:18:38.011Z,102555.41
2023-04-09T11:21:11.310Z,102546.16
2023-04-09T11:23:41.266Z,102547.53
2023-04-09T11:26:13.805Z,102542.78
2023-04-09T11:28:46.237Z,102533.22
2023-04-09T11:31:16.929Z,102541.66
2023-04-09T11:33:50.701Z,102544.97
2023-04-09T11:36:24.630Z,102534.78
2023-04-09T11:38:57.862Z,102535.75
2023-04-09T11:41:37.029Z,102522.69
2023-04-09T11:44:07.880Z,102512.88
2023-04-09T11:46:38.659Z,102510.31
2023-04-09T11:49:08.651Z,102517.72
2023-04-09T11:51:41.226Z,102505.44
2023-04-09T11:54:11.467Z,102518.13
2023-04-09T11:56:41.325Z,102507.56
2023-04-09T11:59:11.192Z,102512.72
2023-04-09T12:01:41.077Z,102506.28
2023-04-09T12:04:13.734Z,102503.66
2023-04-09T12:06:46.441Z,102498.88
2023-04-09T12:09:16.515Z,102501.34
2023-04-09T12:11:47.301Z,102506.34
2023-04-09T12:14:17.966Z,102505.69
2023-04-09T12:16:48.285Z,102503.38
2023-04-09T12:19:19.506Z,102505.69
2023-04-09T12:21:53.424Z,102495.50
2023-04-09T12:24:25.999Z,102488.09
2023-04-09T12:26:57.562Z,102490.28
2023-04-09T12:29:27.390Z,102496.00
2023-04-09T12:31:57.254Z,102480.13
2023-04-09T12:34:27.540Z,102484.84
2023-04-09T12:37:01.496Z,102486.94
2023-04-09T12:39:35.389Z,102487.38
2023-04-09T12:42:05.197Z,102485.84
2023-04-09T12:44:35.376Z,102485.13
2023-04-09T12:47:05.300Z,102480.84
2023-04-09T12:49:35.116Z,102476.63
2023-04-09T12:52:07.689Z,102485.66
2023-04-09T12:54:37.697Z,102476.84
2023-04-09T12:57:07.486Z,102470.00
2023-04-09T12:59:37.339Z,102472.84
2023-04-09T13:02:08.172Z,102468.59
2023-04-09T13:04:38.317Z,102460.03
2023-04-09T13:07:15.286Z,102439.09
2023-04-09T13:09:45.187Z,102442.81
2023-04-09T13:12:16.262Z,102438.69
2023-04-09T13:14:47.576Z,102451.19
2023-04-09T13:17:17.541Z,102445.78
2023-04-09T13:19:47.451Z,102446.66
2023-04-09T13:22:19.921Z,102446.75
2023-04-09T13:24:49.822Z,102451.19
2023-04-09T13:27:20.115Z,102441.75
2023-04-09T13:29:49.955Z,102438.50
2023-04-09T13:32:21.283Z,102430.81
2023-04-09T13:34:51.420Z,102440.06
2023-04-09T13:37:28.504Z,102435.84
2023-04-09T13:39:58.697Z,102431.47
2023-04-09T13:42:28.788Z,102429.00
2023-04-09T13:45:00.512Z,102421.31
2023-04-09T13:47:30.405Z,102425.13
2023-04-09T13:50:00.356Z,102430.47
2023-04-09T13:52:32.804Z,102434.69
2023-04-09T13:55:04.026Z,102445.19
2023-04-09T13:57:33.964Z,102437.13
2023-04-09T14:00:05.654Z,102440.47
2023-04-09T14:02:35.622Z,102431.38
2023-04-09T14:05:05.747Z,102429.50
2023-04-09T14:07:38.196Z,102425.88
2023-04-09T14:10:09.264Z,102419.69
2023-04-09T14:12:39.132Z,102410.91
2023-04-09T14:15:10.687Z,102409.19
2023-04-09T14:17:40.654Z,102412.91
2023-04-09T14:20:11.832Z,102407.84
2023-04-09T14:22:49.286Z,102412.53
2023-04-09T14:25:19.443Z,102411.88
2023-04-09T14:27:49.347Z,102420.03
2023-04-09T14:30:19.339Z,102418.34
2023-04-09T14:32:49.306Z,102420.16
2023-04-09T14:35:19.292Z,102405.16
2023-04-09T14:37:55.340Z,102398.13
2023-04-09T14:40:25.229Z,102395.31
2023-04-09T14:42:55.206Z,102391.63
2023-04-09T14:45:25.249Z,102390.66
2023-04-09T14:47:55.308Z,102387.09
2023-04-09T14:50:25.191Z,102379.94
2023-04-09T14:52:57.646Z,102375.50
2023-04-09T14:55:27.460Z,102377.19
2023-04-09T14:57:59.853Z,102365.66
2023-04-09T15:00:29.752Z,102362.91
2023-04-09T15:03:02.036Z,102363.72
2023-04-09T15:05:32.149Z,102367.28
2023-04-09T15:08:04.603Z,102361.16
2023-04-09T15:10:34.933Z,102357.63
2023-04-09T15:13:04.823Z,102353.28
2023-04-09T15:15:41.286Z,102338.25
2023-04-09T15:18:11.142Z,102342.63
2023-04-09T15:20:43.645Z,102344.28
2023-04-09T15:23:16.557Z,102341.63
2023-04-09T15:25:47.015Z,102330.03
2023-04-09T15:28:16.935Z,102331.78
2023-04-09T15:30:46.729Z,102323.84
2023-04-09T15:33:16.649Z,102326.56
2023-04-09T15:35:50.303Z,102318.44
2023-04-09T15:38:26.654Z,102310.38
2023-04-09T15:40:58.391Z,102313.03
2023-04-09T15:43:28.314Z,102308.50
2023-04-09T15:46:03.501Z,102301.28
2023-04-09T15:48:33.530Z,102304.00
2023-04-09T15:51:18.098Z,102298.72
2023-04-09T15:53:50.547Z,102303.13
2023-04-09T15:56:20.522Z,102304.91
2023-04-09T15:58:50.376Z,102308.38
2023-04-09T16:01:21.056Z,102296.78
2023-04-09T16:03:52.493Z,102292.19
2023-04-09T16:06:23.501Z,102291.16
2023-04-09T16:08:56.763Z,102293.69
2023-04-09T16:11:29.128Z,102289.13
2023-04-09T16:13:59.220Z,102290.00
2023-04-09T16:16:29.188Z,102285.56
2023-04-09T16:19:00.552Z,102287.34
2023-04-09T16:21:30.620Z,102289.91
2023-04-09T16:24:04.067Z,102284.53
2023-04-09T16:26:34.023Z,102280.97
2023-04-09T16:29:04.602Z,102282.69
2023-04-09T16:31:34.551Z,102271.06
2023-04-09T16:34:04.479Z,102275.31
2023-04-09T16:36:37.252Z,102283.16
2023-04-09T16:39:21.564Z,102280.31
2023-04-09T16:41:52.264Z,102285.56
2023-04-09T16:44:22.119Z,102276.78
2023-04-09T16:46:52.215Z,102274.84
2023-04-09T16:49:22.055Z,102282.69
2023-04-09T16:51:53.343Z,102285.25
2023-04-09T16:54:25.828Z,102286.16
2023-04-09T16:56:56.877Z,102285.25
2023-04-09T16:59:26.742Z,102284.38
2023-04-09T17:01:56.837Z,102276.44
2023-04-09T17:04:27.556Z,102279.94
2023-04-09T17:06:57.755Z,102288.72
2023-04-09T17:09:31.677Z,102279.78
2023-04-09T17:12:01.547Z,102273.56
2023-04-09T17:14:33.921Z,102270.78
2023-04-09T17:17:03.884Z,102275.06
2023-04-09T17:19:47.644Z,102270.56
2023-04-09T17:22:26.252Z,102268.63
2023-04-09T17:24:58.777Z,102268.50
2023-04-09T17:27:28.873Z,102267.50
2023-04-09T17:29:58.972Z,102269.06
2023-04-09T17:32:29.004Z,102272.44
2023-04-09T17:35:03.852Z,102277.50
2023-04-09T17:37:36.194Z,102269.31
2023-04-09T17:40:10.263Z,102270.88
2023-04-09T17:42:54.709Z,102278.63
2023-04-09T17:45:24.725Z,102268.63
2023-04-09T17:47:55.458Z,102263.09
2023-04-09T17:50:27.781Z,102269.03
2023-04-09T17:52:57.850Z,102259.81
2023-04-09T17:55:30.753Z,102257.75
2023-04-09T17:58:00.590Z,102255.63
2023-04-09T18:00:33.136Z,102260.59
2023-04-09T18:03:03.279Z,102259.34
2023-04-09T18:05:33.586Z,102258.06
2023-04-09T18:08:04.330Z,102265.69
2023-04-09T18:10:43.333Z,102269.81
2023-04-09T18:13:13.261Z,102277.47
2023-04-09T18:15:43.485Z,102270.94
2023-04-09T18:18:13.328Z,102274.09
2023-04-09T18:20:45.150Z,102279.09
2023-04-09T18:23:14.986Z,102279.66
2023-04-09T18:25:47.554Z,102275.91
2023-04-09T18:28:17.835Z,102273.81
2023-04-09T18:30:47.683Z,102276.28
2023-04-09T18:33:17.561Z,102283.06
2023-04-09T18:35:47.464Z,102273.94
2023-04-09T18:38:18.132Z,102274.47
2023-04-09T18:40:50.581Z,102279.50
2023-04-09T18:43:20.595Z,102276.50
2023-04-09T18:45:50.420Z,102273.50
2023-04-09T18:48:20.932Z,102281.81
2023-04-09T18:50:50.859Z,102288.59
2023-04-09T18:53:20.720Z,102284.75
2023-04-09T18:55:53.210Z,102282.78
2023-04-09T18:58:23.092Z,102280.00
2023-04-09T19:00:54.767Z,102283.19
2023-04-09T19:03:34.576Z,102280.25
2023-04-09T19:06:04.674Z,102279.13
2023-04-09T19:08:38.430Z,102274.66
2023-04-09T19:11:11.261Z,102270.88
2023-04-09T19:13:42.066Z,102270.50
2023-04-09T19:16:12.571Z,102284.41
2023-04-09T19:18:42.450Z,102277.06
2023-04-09T19:21:12.355Z,102283.03
2023-04-09T19:23:42.320Z,102286.25
2023-04-09T19:26:15.792Z,102287.75
2023-04-09T19:28:45.770Z,102279.53
2023-04-09T19:31:17.202Z,102284.50
2023-04-09T19:33:47.183Z,102281.63
2023-04-09T19:36:17.083Z,102278.72
2023-04-09T19:38:47.027Z,102285.56
2023-04-09T19:41:19.671Z,102286.22
2023-04-09T19:43:49.632Z,102286.81
2023-04-09T19:46:19.513Z,102283.03
2023-04-09T19:48:53.617Z,102270.50
2023-04-09T19:51:23.746Z,102281.81
2023-04-09T19:53:53.686Z,102275.47
2023-04-09T19:56:26.183Z,102281.50
2023-04-09T19:58:56.297Z,102272.50
2023-04-09T20:01:26.452Z,102276.78
2023-04-09T20:03:56.467Z,102266.94
2023-04-09T20:06:27.344Z,102263.19
2023-04-09T20:08:59.627Z,102265.59
2023-04-09T20:11:32.187Z,102270.69
2023-04-09T20:14:02.060Z,102269.53
2023-04-09T20:16:32.363Z,102266.75
2023-04-09T20:19:02.222Z,102275.28
2023-04-09T20:21:32.049Z,102277.72
2023-04-09T20:24:05.066Z,102269.56
2023-04-09T20:26:37.466Z,102269.38
2023-04-09T20:29:12.028Z,102264.69
2023-04-09T20:31:42.581Z,102265.34
2023-04-09T20:34:12.453Z,102258.94
2023-04-09T20:36:44.094Z,102265.81
2023-04-09T20:39:14.291Z,102263.03
2023-04-09T20:41:46.751Z,102260.22
2023-04-09T20:44:16.589Z,102266.22
2023-04-09T20:46:46.370Z,102248.47
2023-04-09T20:49:16.152Z,102263.16
2023-04-09T20:51:46.508Z,102253.28
2023-04-09T20:54:18.167Z,102248.66
2023-04-09T20:56:51.506Z,102250.13
2023-04-09T20:59:21.926Z,102261.50
2023-04-09T21:01:51.858Z,102258.59
2023-04-09T21:04:22.696Z,102252.34
2023-04-09T21:06:52.664Z,102252.16
2023-04-09T21:09:22.583Z,102245.81
2023-04-09T21:11:55.114Z,102252.63
2023-04-09T21:14:27.986Z,102244.59
2023-04-09T21:16:57.867Z,102247.84
2023-04-09T21:19:27.751Z,102254.66
2023-04-09T21:21:57.715Z,102262.44
2023-04-09T21:24:28.142Z,102260.41
2023-04-09T21:27:02.607Z,102266.50
2023-04-09T21:29:32.440Z,102264.59
2023-04-09T21:32:02.555Z,102265.16
2023-04-09T21:34:32.360Z,102264.16
2023-04-09T21:37:02.235Z,102271.88
2023-04-09T21:39:32.290Z,102262.88
2023-04-09T21:42:06.006Z,102270.59
2023-04-09T21:44:36.924Z,102267.81
2023-04-09T21:47:09.129Z,102272.16
2023-04-09T21:49:40.840Z,102268.53
2023-04-09T21:52:15.040Z,102264.91
2023-04-09T21:54:45.355Z,102259.53
2023-04-09T21:57:18.674Z,102255.00
2023-04-09T21:59:48.478Z,102253.94
2023-04-09T22:02:18.488Z,102246.78
2023-04-09T22:04:48.460Z,102242.13
2023-04-09T22:07:18.415Z,102246.31
2023-04-09T22:09:48.250Z,102245.22
2023-04-09T22:12:20.638Z,102244.03
2023-04-09T22:14:50.511Z,102247.31
2023-04-09T22:17:20.350Z,102244.41
2023-04-09T22:19:51.274Z,102233.72
2023-04-09T22:22:21.207Z,102239.69
2023-04-09T22:24:51.008Z,102236.06
2023-04-09T22:27:23.434Z,102229.91
2023-04-09T22:29:53.325Z,102232.25
2023-04-09T22:32:23.177Z,102233.88
2023-04-09T22:34:53.162Z,102236.31
2023-04-09T22:37:27.999Z,102237.84
2023-04-09T22:39:58.071Z,102234.13
2023-04-09T22:42:30.525Z,102222.75
2023-04-09T22:45:00.347Z,102227.81
2023-04-09T22:47:30.598Z,102221.56
2023-04-09T22:50:00.426Z,102219.66
2023-04-09T22:52:30.240Z,102216.91
2023-04-09T22:55:00.153Z,102207.97
2023-04-09T22:57:32.863Z,102209.69
2023-04-09T23:00:03.284Z,102208.69
2023-04-09T23:02:33.243Z,102211.19
2023-04-09T23:05:03.253Z,102204.16
2023-04-09T23:07:33.112Z,102200.63
2023-04-09T23:10:03.043Z,102200.63
2023-04-09T23:12:36.088Z,102191.81
2023-04-09T23:15:06.045Z,102191.75
2023-04-09T23:17:39.991Z,102190.03
2023-04-09T23:20:11.686Z,102180.25
2023-04-09T23:22:41.508Z,102170.47
2023-04-09T23:25:12.300Z,102169.44
2023-04-09T23:27:44.987Z,102183.41
2023-04-09T23:30:17.230Z,102177.22
2023-04-09T23:32:47.878Z,102167.66
2023-04-09T23:35:18.426Z,102170.19
2023-04-09T23:37:53.398Z,102167.56
2023-04-09T23:40:23.310Z,102176.31
2023-04-09T23:42:56.004Z,102178.94
2023-04-09T23:45:26.386Z,102171.78
2023-04-09T23:47:58.242Z,102167.25
2023-04-09T23:50:28.898Z,102159.31
2023-04-09T23:53:03.586Z,102163.56
2023-04-09T23:55:33.638Z,102155.50
2023-04-09T23:58:06.124Z,102165.06
